Aeroporto :
LOGIN :

Iscrizione | Disclaimer

   EN    FR    IT 

 










Sommario :    VFR   VFR Marginale   IFR   IFR Intensivo   IFR Molto Intensivo
Visibilità : 
Base nubi : 
>= 8 km
>= 3000ft
5 / 8 km
1000 / 3000 ft
1500m / 5 km
500 / 1000 ft
800 / 1500m
200 / 500 ft
< 800m
< 200 ft
Simboli :   Temporali  Nebbia  Neve Forte  Precipitazioni Forti  Vento > 20 kt
SIGMETs :   Varie  Temporali  Ghiacco  Turbolenza  Onda orograficha  Ceneri Vulcaniche






- Altitudine del aeroporto : 44 ft
- Codice IATA : SOU


EGHI - Southampton

ULTIMO METAR :
  • 201050Z 19014G24KT 150V220 9999 SCT015 BKN022 17/14 Q1001

METARs OBSOLETI :
  • 201020Z 19013G24KT 150V230 9999 BKN016 17/14 Q1001
  • 200950Z 19011KT 140V220 9999 BKN013 17/14 Q1001
  • 200920Z 18010G20KT 140V240 9999 FEW012 BKN015 16/14 Q1001
  • 200850Z 19012KT 150V220 9999 FEW012 BKN015 16/14 Q1001
  • 200820Z 18009KT 140V210 9999 BKN015 16/14 Q1001

TAF AMD TAF EGHI
Valido dal 20 a 10 ore il 20 a 18 ore UTC


201007Z 2010/2018 18012KT 9999 FEW030
TEMPO 2010/2011 BKN013
PROB30
TEMPO 2010/2015 19015G25KT
ATIS : +44 23 8062 7103



MetMap, La meteo Aeronautica in un colpo d'occhio ! - Copyright ORBIFLY Dicembre 2007 - Disclaimer

ORBIFLY MET'MAP TEAM :

Programmazione e sviluppo : Alexandra Zaïnal
Concezione : Baudouin d'Aumeries
Aiuto per la programmazione : Marc-Olivier Méhu
Supporto tecnico e logistico : Manuel Goepfert
Aiuto per la traduzione : Arnaldo La Scala

Contatto : metmap@orbifly.com




FONTI E CREDITI :

   NOAA